createdAt,value
2019-02-26T00:00:56.505Z,15.20
2019-02-26T00:02:04.434Z,15.78
2019-02-26T00:03:11.240Z,16.23
2019-02-26T00:04:20.824Z,16.50
2019-02-26T00:05:28.416Z,16.17
2019-02-26T00:06:34.756Z,15.55
2019-02-26T00:07:41.649Z,16.43
2019-02-26T00:08:51.276Z,14.93
2019-02-26T00:09:59.461Z,16.20
2019-02-26T00:11:08.323Z,16.03
2019-02-26T00:12:14.400Z,16.40
2019-02-26T00:13:21.167Z,16.20
2019-02-26T00:14:30.252Z,17.62
2019-02-26T00:15:38.105Z,14.70
2019-02-26T00:16:46.663Z,16.60
2019-02-26T00:17:53.134Z,18.27
2019-02-26T00:19:02.619Z,16.52
2019-02-26T00:20:10.917Z,15.15
2019-02-26T00:21:17.628Z,17.10
2019-02-26T00:22:24.321Z,16.48
2019-02-26T00:23:31.081Z,16.42
2019-02-26T00:24:39.749Z,15.45
2019-02-26T00:25:46.233Z,14.80
2019-02-26T00:26:52.947Z,16.62
2019-02-26T00:27:59.606Z,16.32
2019-02-26T00:29:08.353Z,15.50
2019-02-26T00:30:16.754Z,17.17
2019-02-26T00:31:24.298Z,15.75
2019-02-26T00:32:32.354Z,18.30
2019-02-26T00:33:40.495Z,17.50
2019-02-26T00:34:47.469Z,17.48
2019-02-26T00:35:54.207Z,16.10
2019-02-26T00:37:01.802Z,16.07
2019-02-26T00:38:11.077Z,16.52
2019-02-26T00:39:18.095Z,15.70
2019-02-26T00:40:25.114Z,16.60
2019-02-26T00:41:33.541Z,17.42
2019-02-26T00:42:40.505Z,17.52
2019-02-26T00:43:51.197Z,16.20
2019-02-26T00:44:58.277Z,17.10
2019-02-26T00:46:05.587Z,16.10
2019-02-26T00:47:13.236Z,16.30
2019-02-26T00:48:20.323Z,16.63
2019-02-26T00:49:28.488Z,16.37
2019-02-26T00:50:37.431Z,17.07
2019-02-26T00:51:46.506Z,16.60
2019-02-26T00:52:56.492Z,15.90
2019-02-26T00:54:02.380Z,16.13
2019-02-26T00:55:10.464Z,15.28
2019-02-26T00:56:17.203Z,15.98
2019-02-26T00:57:27.140Z,17.15
2019-02-26T00:58:37.049Z,16.73
2019-02-26T00:59:43.613Z,16.85
2019-02-26T01:00:49.931Z,18.02
2019-02-26T01:01:59.302Z,16.45
2019-02-26T01:03:06.094Z,15.63
2019-02-26T01:04:14.055Z,16.75
2019-02-26T01:05:20.768Z,17.33
2019-02-26T01:06:28.982Z,16.85
2019-02-26T01:07:36.019Z,16.95
2019-02-26T01:08:44.775Z,16.65
2019-02-26T01:09:52.481Z,16.85
2019-02-26T01:11:01.562Z,16.10
2019-02-26T01:12:09.192Z,15.55
2019-02-26T01:13:17.270Z,16.17
2019-02-26T01:14:24.691Z,15.50
2019-02-26T01:15:31.441Z,15.48
2019-02-26T01:16:39.410Z,15.20
2019-02-26T01:17:46.606Z,15.93
2019-02-26T01:18:53.290Z,15.40
2019-02-26T01:20:00.992Z,16.60
2019-02-26T01:21:08.758Z,16.37
2019-02-26T01:22:15.454Z,14.65
2019-02-26T01:23:24.246Z,15.30
2019-02-26T01:24:32.704Z,15.70
2019-02-26T01:25:39.432Z,14.78
2019-02-26T01:26:46.272Z,15.70
2019-02-26T01:27:53.276Z,17.25
2019-02-26T01:29:01.375Z,16.03
2019-02-26T01:30:10.256Z,14.68
2019-02-26T01:31:16.980Z,16.00
2019-02-26T01:32:24.930Z,17.77
2019-02-26T01:33:32.124Z,15.83
2019-02-26T01:34:42.766Z,17.15
2019-02-26T01:35:52.717Z,17.17
2019-02-26T01:37:00.814Z,15.45
2019-02-26T01:38:07.682Z,15.98
2019-02-26T01:39:16.226Z,16.50
2019-02-26T01:40:25.624Z,16.67
2019-02-26T01:41:31.952Z,13.85
2019-02-26T01:42:39.199Z,16.62
2019-02-26T01:43:46.143Z,15.03
2019-02-26T01:44:52.938Z,16.25
2019-02-26T01:45:59.582Z,15.80
2019-02-26T01:47:06.668Z,15.35
2019-02-26T01:48:16.733Z,15.23
2019-02-26T01:49:23.577Z,15.48
2019-02-26T01:50:31.494Z,16.42
2019-02-26T01:51:38.732Z,14.73
2019-02-26T01:52:45.741Z,15.10
2019-02-26T01:53:53.684Z,16.60
2019-02-26T01:55:02.728Z,14.73
2019-02-26T01:56:09.165Z,14.47
2019-02-26T01:57:17.333Z,15.10
2019-02-26T01:58:24.503Z,13.55
2019-02-26T01:59:31.722Z,15.13
2019-02-26T02:00:40.932Z,16.23
2019-02-26T02:01:49.695Z,15.60
2019-02-26T02:02:56.725Z,15.00
2019-02-26T02:04:03.448Z,15.85
2019-02-26T02:05:10.680Z,17.80
2019-02-26T02:06:18.226Z,16.55
2019-02-26T02:07:26.037Z,16.77
2019-02-26T02:08:33.742Z,16.17
2019-02-26T02:09:41.152Z,16.23
2019-02-26T02:10:49.647Z,16.32
2019-02-26T02:11:57.395Z,16.80
2019-02-26T02:13:07.084Z,16.02
2019-02-26T02:14:16.658Z,17.32
2019-02-26T02:15:23.737Z,17.07
2019-02-26T02:16:31.466Z,17.98
2019-02-26T02:17:40.126Z,17.27
2019-02-26T02:18:48.845Z,15.95
2019-02-26T02:19:55.246Z,16.90
2019-02-26T02:21:01.980Z,15.93
2019-02-26T02:22:09.974Z,17.85
2019-02-26T02:23:19.387Z,18.20
2019-02-26T02:24:26.412Z,18.15
2019-02-26T02:25:35.638Z,16.67
2019-02-26T02:26:45.324Z,17.48
2019-02-26T02:27:52.529Z,16.80
2019-02-26T02:28:59.267Z,16.90
2019-02-26T02:30:07.550Z,16.27
2019-02-26T02:31:14.612Z,18.37
2019-02-26T02:32:24.113Z,16.60
2019-02-26T02:33:32.082Z,17.32
2019-02-26T02:34:39.979Z,16.50
2019-02-26T02:35:47.778Z,18.32
2019-02-26T02:36:54.434Z,15.08
2019-02-26T02:38:02.843Z,15.98
2019-02-26T02:39:13.036Z,17.12
2019-02-26T02:40:18.455Z,16.95
2019-02-26T02:41:25.233Z,17.55
2019-02-26T02:42:31.905Z,16.50
2019-02-26T02:43:40.042Z,15.98
2019-02-26T02:44:49.223Z,16.93
2019-02-26T02:45:56.474Z,15.85
2019-02-26T02:47:06.081Z,16.90
2019-02-26T02:48:14.203Z,16.12
2019-02-26T02:49:21.145Z,15.75
2019-02-26T02:50:27.796Z,16.20
2019-02-26T02:51:36.468Z,17.70
2019-02-26T02:52:43.476Z,15.70
2019-02-26T02:53:51.093Z,16.90
2019-02-26T02:54:58.621Z,15.70
2019-02-26T02:56:06.355Z,15.15
2019-02-26T02:57:13.998Z,16.32
2019-02-26T02:58:23.096Z,15.98
2019-02-26T02:59:30.999Z,15.75
2019-02-26T03:00:38.558Z,16.27
2019-02-26T03:01:48.349Z,17.23
2019-02-26T03:02:56.163Z,16.52
2019-02-26T03:04:02.758Z,16.30
2019-02-26T03:05:10.749Z,17.20
2019-02-26T03:06:17.451Z,18.20
2019-02-26T03:07:26.726Z,15.95
2019-02-26T03:08:32.568Z,16.95
2019-02-26T03:09:40.698Z,16.75
2019-02-26T03:10:48.126Z,16.10
2019-02-26T03:11:55.195Z,16.67
2019-02-26T03:13:03.004Z,16.73
2019-02-26T03:14:10.940Z,16.52
2019-02-26T03:15:18.520Z,14.65
2019-02-26T03:16:27.175Z,15.50
2019-02-26T03:17:33.914Z,16.35
2019-02-26T03:18:40.714Z,16.07
2019-02-26T03:19:47.362Z,17.73
2019-02-26T03:20:56.599Z,17.13
2019-02-26T03:22:03.596Z,17.65
2019-02-26T03:23:15.127Z,17.37
2019-02-26T03:24:19.002Z,16.60
2019-02-26T03:25:29.011Z,16.75
2019-02-26T03:26:35.108Z,16.82
2019-02-26T03:27:42.631Z,16.50
2019-02-26T03:28:51.382Z,16.23
2019-02-26T03:29:59.088Z,17.00
2019-02-26T03:31:06.235Z,15.95
2019-02-26T03:32:13.015Z,18.07
2019-02-26T03:33:19.797Z,16.50
2019-02-26T03:34:26.700Z,17.77
2019-02-26T03:35:33.442Z,17.05
2019-02-26T03:36:42.830Z,16.50
2019-02-26T03:37:51.441Z,15.75
2019-02-26T03:38:59.788Z,17.75
2019-02-26T03:40:08.202Z,15.30
2019-02-26T03:41:16.611Z,16.25
2019-02-26T03:42:24.159Z,15.80
2019-02-26T03:43:31.396Z,15.90
2019-02-26T03:44:39.289Z,15.85
2019-02-26T03:45:48.082Z,16.00
2019-02-26T03:46:54.668Z,17.48
2019-02-26T03:48:01.698Z,17.15
2019-02-26T03:49:08.586Z,15.58
2019-02-26T03:50:16.996Z,17.20
2019-02-26T03:51:24.005Z,17.75
2019-02-26T03:52:32.097Z,17.15
2019-02-26T03:53:39.815Z,17.37
2019-02-26T03:54:48.616Z,16.87
2019-02-26T03:55:59.588Z,16.52
2019-02-26T03:57:04.956Z,16.70
2019-02-26T03:58:11.621Z,16.35
2019-02-26T03:59:18.289Z,18.17
2019-02-26T04:00:25.333Z,16.10
2019-02-26T04:01:32.007Z,15.88
2019-02-26T04:02:39.942Z,17.75
2019-02-26T04:03:47.335Z,16.95
2019-02-26T04:04:56.553Z,17.62
2019-02-26T04:06:03.138Z,16.40
2019-02-26T04:07:11.550Z,14.90
2019-02-26T04:08:20.085Z,16.48
2019-02-26T04:09:27.137Z,16.35
2019-02-26T04:10:33.808Z,15.90
2019-02-26T04:11:44.854Z,17.17
2019-02-26T04:12:52.350Z,17.32
2019-02-26T04:13:57.934Z,15.08
2019-02-26T04:15:05.080Z,16.12
2019-02-26T04:16:12.146Z,16.93
2019-02-26T04:17:23.110Z,15.70
2019-02-26T04:18:27.766Z,16.35
2019-02-26T04:19:34.902Z,16.05
2019-02-26T04:20:44.326Z,15.75
2019-02-26T04:22:31.469Z,15.75
2019-02-26T04:23:39.704Z,14.33
2019-02-26T04:24:47.452Z,14.98
2019-02-26T04:27:00.528Z,15.55
2019-02-26T04:28:58.341Z,16.20
2019-02-26T04:30:47.071Z,14.28
2019-02-26T04:32:46.298Z,14.80
2019-02-26T04:34:59.621Z,16.17
2019-02-26T04:37:12.867Z,17.50
2019-02-26T04:39:22.240Z,17.80
2019-02-26T04:41:32.570Z,17.00
2019-02-26T04:43:42.124Z,14.13
2019-02-26T04:45:48.732Z,18.10
2019-02-26T04:47:21.943Z,20.30
2019-02-26T04:48:32.529Z,20.02
2019-02-26T04:49:42.731Z,16.30
2019-02-26T04:50:48.057Z,17.70
2019-02-26T04:51:54.779Z,17.37
2019-02-26T04:53:04.855Z,17.25
2019-02-26T04:54:10.091Z,17.07
2019-02-26T04:55:16.745Z,18.85
2019-02-26T04:56:24.085Z,17.60
2019-02-26T04:57:31.154Z,16.97
2019-02-26T04:58:41.886Z,18.73
2019-02-26T04:59:47.159Z,18.67
2019-02-26T05:00:54.113Z,17.65
2019-02-26T05:02:01.107Z,17.00
2019-02-26T05:03:11.213Z,18.75
2019-02-26T05:04:16.970Z,16.93
2019-02-26T05:05:25.848Z,16.42
2019-02-26T05:06:32.439Z,17.10
2019-02-26T05:07:43.808Z,15.63
2019-02-26T05:08:49.083Z,16.70
2019-02-26T05:09:56.975Z,16.30
2019-02-26T05:11:04.537Z,15.93
2019-02-26T05:12:11.240Z,17.73
2019-02-26T05:13:17.966Z,20.05
2019-02-26T05:14:24.676Z,16.48
2019-02-26T05:15:33.244Z,17.40
2019-02-26T05:16:40.779Z,16.55
2019-02-26T05:17:47.961Z,16.30
2019-02-26T05:18:58.273Z,18.20
2019-02-26T05:20:06.293Z,18.00
2019-02-26T05:21:13.027Z,16.82
2019-02-26T05:22:22.644Z,17.48
2019-02-26T05:23:31.062Z,16.80
2019-02-26T05:24:38.674Z,16.20
2019-02-26T05:25:45.140Z,16.07
2019-02-26T05:26:51.826Z,18.23
2019-02-26T05:27:58.480Z,16.93
2019-02-26T05:29:12.175Z,16.90
2019-02-26T05:30:20.073Z,17.67
2019-02-26T05:31:29.777Z,18.12
2019-02-26T05:32:36.364Z,19.85
2019-02-26T05:33:43.059Z,21.35
2019-02-26T05:34:50.846Z,18.40
2019-02-26T05:35:57.680Z,17.80
2019-02-26T05:37:07.465Z,16.87
2019-02-26T05:38:13.193Z,18.90
2019-02-26T05:39:21.064Z,17.75
2019-02-26T05:40:28.210Z,19.35
2019-02-26T05:41:35.250Z,19.20
2019-02-26T05:42:42.338Z,18.35
2019-02-26T05:43:52.188Z,18.20
2019-02-26T05:45:00.638Z,15.80
2019-02-26T05:46:07.235Z,16.60
2019-02-26T05:47:16.686Z,17.42
2019-02-26T05:48:23.807Z,19.85
2019-02-26T05:49:32.208Z,17.17
2019-02-26T05:50:43.861Z,20.60
2019-02-26T05:51:48.791Z,22.10
2019-02-26T05:52:57.983Z,24.20
2019-02-26T05:54:07.770Z,24.30
2019-02-26T05:55:16.401Z,25.50
2019-02-26T05:56:22.902Z,26.27
2019-02-26T05:57:32.616Z,26.00
2019-02-26T05:58:41.929Z,24.80
2019-02-26T05:59:49.510Z,24.15
2019-02-26T06:00:56.191Z,22.95
2019-02-26T06:02:03.234Z,23.27
2019-02-26T06:03:12.258Z,20.52
2019-02-26T06:04:20.662Z,20.65
2019-02-26T06:05:27.816Z,18.65
2019-02-26T06:06:35.238Z,19.37
2019-02-26T06:07:41.964Z,18.02
2019-02-26T06:08:49.008Z,18.62
2019-02-26T06:09:57.249Z,21.40
2019-02-26T06:11:04.490Z,18.65
2019-02-26T06:12:11.257Z,19.10
2019-02-26T06:13:18.026Z,19.50
2019-02-26T06:14:27.206Z,17.90
2019-02-26T06:15:34.160Z,20.15
2019-02-26T06:16:43.145Z,18.10
2019-02-26T06:17:51.478Z,19.67
2019-02-26T06:18:58.781Z,19.45
2019-02-26T06:20:23.420Z,18.15
2019-02-26T06:21:29.591Z,21.68
2019-02-26T06:22:36.280Z,20.05
2019-02-26T06:23:43.982Z,20.35
2019-02-26T06:24:54.987Z,21.05
2019-02-26T06:26:02.347Z,20.70
2019-02-26T06:27:13.063Z,22.00
2019-02-26T06:28:18.608Z,21.55
2019-02-26T06:29:27.398Z,22.80
2019-02-26T06:30:35.072Z,21.90
2019-02-26T06:31:44.194Z,22.32
2019-02-26T06:32:50.897Z,20.23
2019-02-26T06:34:01.472Z,19.52
2019-02-26T06:35:11.008Z,22.05
2019-02-26T06:36:18.606Z,20.95
2019-02-26T06:37:28.430Z,20.32
2019-02-26T06:38:35.236Z,20.97
2019-02-26T06:39:41.950Z,20.97
2019-02-26T06:40:49.544Z,19.30
2019-02-26T06:41:57.400Z,19.23
2019-02-26T06:43:04.430Z,20.48
2019-02-26T06:44:11.429Z,20.77
2019-02-26T06:45:18.097Z,18.85
2019-02-26T06:46:26.964Z,18.12
2019-02-26T06:47:33.869Z,18.07
2019-02-26T06:48:40.896Z,21.20
2019-02-26T06:49:48.567Z,19.65
2019-02-26T06:50:57.536Z,19.27
2019-02-26T06:52:06.479Z,19.77
2019-02-26T06:53:16.124Z,17.57
2019-02-26T06:54:25.061Z,18.20
2019-02-26T06:55:31.429Z,19.77
2019-02-26T06:56:43.309Z,17.55
2019-02-26T06:57:52.179Z,17.30
2019-02-26T06:58:55.773Z,19.90
2019-02-26T07:00:04.241Z,16.93
2019-02-26T07:01:12.021Z,18.17
2019-02-26T07:02:19.925Z,16.95
2019-02-26T07:03:26.603Z,17.60
2019-02-26T07:04:33.284Z,16.20
2019-02-26T07:05:42.367Z,16.90
2019-02-26T07:06:48.717Z,15.68
2019-02-26T07:07:57.049Z,17.45
2019-02-26T07:09:04.741Z,19.45
2019-02-26T07:10:15.963Z,18.40
2019-02-26T07:11:25.608Z,17.10
2019-02-26T07:12:30.480Z,16.85
2019-02-26T07:13:39.132Z,16.27
2019-02-26T07:14:46.462Z,19.10
2019-02-26T07:15:53.954Z,20.65
2019-02-26T07:17:00.702Z,18.25
2019-02-26T07:18:10.275Z,17.32
2019-02-26T07:19:16.747Z,16.40
2019-02-26T07:20:33.674Z,16.50
2019-02-26T07:21:32.904Z,15.15
2019-02-26T07:22:41.497Z,15.50
2019-02-26T07:23:48.741Z,17.75
2019-02-26T07:24:56.597Z,16.85
2019-02-26T07:26:03.556Z,16.15
2019-02-26T07:27:11.615Z,15.15
2019-02-26T07:28:20.619Z,17.35
2019-02-26T07:29:30.712Z,15.93
2019-02-26T07:30:37.594Z,16.48
2019-02-26T07:31:44.192Z,16.87
2019-02-26T07:32:50.894Z,18.90
2019-02-26T07:33:58.207Z,17.90
2019-02-26T07:35:08.748Z,18.30
2019-02-26T07:36:18.323Z,18.17
2019-02-26T07:37:25.041Z,16.67
2019-02-26T07:38:40.578Z,17.93
2019-02-26T07:39:41.932Z,17.30
2019-02-26T07:40:48.837Z,15.50
2019-02-26T07:41:55.878Z,17.12
2019-02-26T07:43:04.890Z,15.95
2019-02-26T07:44:15.335Z,17.50
2019-02-26T07:45:22.262Z,16.47
2019-02-26T07:46:28.193Z,17.77
2019-02-26T07:47:36.382Z,16.48
2019-02-26T07:48:43.285Z,16.97
2019-02-26T07:49:50.246Z,18.27
2019-02-26T07:50:57.272Z,16.55
2019-02-26T07:52:06.706Z,16.65
2019-02-26T07:53:14.525Z,18.07
2019-02-26T07:54:21.758Z,18.85
2019-02-26T07:55:32.203Z,19.52
2019-02-26T07:56:37.103Z,21.65
2019-02-26T07:57:45.553Z,20.92
2019-02-26T07:58:56.961Z,20.20
2019-02-26T08:00:01.362Z,19.75
2019-02-26T08:01:08.287Z,19.90
2019-02-26T08:02:14.969Z,17.53
2019-02-26T08:03:24.325Z,19.37
2019-02-26T08:04:32.321Z,19.43
2019-02-26T08:05:39.728Z,18.30
2019-02-26T08:06:46.719Z,20.93
2019-02-26T08:07:54.433Z,19.57
2019-02-26T08:09:04.632Z,17.53
2019-02-26T08:10:16.790Z,16.80
2019-02-26T08:11:23.199Z,19.95
2019-02-26T08:12:32.696Z,18.40
2019-02-26T08:13:39.353Z,19.67
2019-02-26T08:14:47.727Z,20.00
2019-02-26T08:15:55.838Z,19.10
2019-02-26T08:17:03.940Z,19.30
2019-02-26T08:18:11.819Z,19.85
2019-02-26T08:19:18.474Z,25.40
2019-02-26T08:20:25.164Z,20.47
2019-02-26T08:21:32.259Z,21.53
2019-02-26T08:22:39.687Z,19.35
2019-02-26T08:23:48.240Z,20.27
2019-02-26T08:24:56.296Z,18.63
2019-02-26T08:26:03.554Z,19.82
2019-02-26T08:27:11.619Z,18.80
2019-02-26T08:28:22.127Z,21.00
2019-02-26T08:29:30.809Z,20.00
2019-02-26T08:30:40.234Z,19.77
2019-02-26T08:31:47.486Z,20.27
2019-02-26T08:32:56.358Z,20.77
2019-02-26T08:34:02.770Z,20.47
2019-02-26T08:35:10.201Z,19.53
2019-02-26T08:36:17.247Z,20.00
2019-02-26T08:37:24.357Z,19.97
2019-02-26T08:38:31.054Z,21.17
2019-02-26T08:39:38.680Z,22.10
2019-02-26T08:40:46.191Z,19.60
2019-02-26T08:42:09.444Z,21.97
2019-02-26T08:43:16.133Z,22.10
2019-02-26T08:44:23.488Z,20.27
2019-02-26T08:45:31.149Z,19.87
2019-02-26T08:46:39.876Z,20.20
2019-02-26T08:47:46.891Z,19.50
2019-02-26T08:48:53.580Z,19.93
2019-02-26T08:50:03.612Z,20.30
2019-02-26T08:51:13.635Z,19.87
2019-02-26T08:52:19.920Z,18.53
2019-02-26T08:53:28.855Z,21.07
2019-02-26T08:54:35.871Z,21.10
2019-02-26T08:55:42.773Z,20.10
2019-02-26T08:56:49.408Z,20.50
2019-02-26T08:57:56.620Z,20.50
2019-02-26T08:59:03.683Z,21.33
2019-02-26T09:00:19.262Z,19.40
2019-02-26T09:01:26.291Z,21.37
2019-02-26T09:02:33.322Z,20.50
2019-02-26T09:03:40.943Z,20.60
2019-02-26T09:04:48.152Z,19.17
2019-02-26T09:05:56.998Z,20.07
2019-02-26T09:07:03.554Z,21.17
2019-02-26T09:08:12.853Z,21.30
2019-02-26T09:09:21.000Z,20.30
2019-02-26T09:10:27.827Z,20.80
2019-02-26T09:11:36.378Z,21.20
2019-02-26T09:12:44.162Z,21.20
2019-02-26T09:13:51.670Z,19.20
2019-02-26T09:14:58.642Z,21.10
2019-02-26T09:16:07.856Z,19.10
2019-02-26T09:17:18.729Z,20.03
2019-02-26T09:18:27.434Z,20.43
2019-02-26T09:19:33.169Z,21.60
2019-02-26T09:20:40.195Z,20.47
2019-02-26T09:21:47.788Z,19.70
2019-02-26T09:22:56.499Z,21.80
2019-02-26T09:24:07.098Z,22.00
2019-02-26T09:25:13.422Z,20.40
2019-02-26T09:26:20.186Z,20.47
2019-02-26T09:27:27.205Z,20.67
2019-02-26T09:28:35.738Z,20.87
2019-02-26T09:29:48.349Z,20.37
2019-02-26T09:30:50.852Z,21.40
2019-02-26T09:31:57.547Z,20.67
2019-02-26T09:33:06.391Z,22.83
2019-02-26T09:34:13.392Z,20.70
2019-02-26T09:35:25.266Z,21.20
2019-02-26T09:36:29.452Z,22.20
2019-02-26T09:37:36.751Z,22.00
2019-02-26T09:38:44.319Z,20.20
2019-02-26T09:39:54.185Z,22.33
2019-02-26T09:41:01.061Z,23.40
2019-02-26T09:42:09.190Z,22.20
2019-02-26T09:43:17.347Z,21.60
2019-02-26T09:44:26.177Z,22.27
2019-02-26T09:45:34.181Z,24.40
2019-02-26T09:46:43.356Z,23.27
2019-02-26T09:47:50.215Z,21.47
2019-02-26T09:48:58.603Z,21.57
2019-02-26T09:50:07.967Z,22.00
2019-02-26T09:51:16.491Z,24.20
2019-02-26T09:52:27.538Z,20.87
2019-02-26T09:53:32.987Z,23.60
2019-02-26T09:54:42.681Z,20.83
2019-02-26T09:55:48.094Z,28.37
2019-02-26T09:56:55.470Z,33.27
2019-02-26T09:58:02.663Z,28.70
2019-02-26T09:59:10.303Z,29.57
2019-02-26T10:00:22.571Z,34.43
2019-02-26T10:01:27.770Z,24.87
2019-02-26T10:02:34.454Z,23.90
2019-02-26T10:03:41.559Z,24.07
2019-02-26T10:04:49.543Z,23.07
2019-02-26T10:05:57.872Z,21.57
2019-02-26T10:07:07.524Z,23.77
2019-02-26T10:08:13.497Z,22.73
2019-02-26T10:09:20.708Z,23.00
2019-02-26T10:10:29.146Z,22.83
2019-02-26T10:11:35.878Z,22.90
2019-02-26T10:12:42.930Z,22.63
2019-02-26T10:13:51.216Z,22.77
2019-02-26T10:15:00.167Z,23.43
2019-02-26T10:16:08.935Z,23.00
2019-02-26T10:17:17.194Z,22.60
2019-02-26T10:18:25.654Z,21.97
2019-02-26T10:19:33.731Z,22.23
2019-02-26T10:20:43.310Z,21.73
2019-02-26T10:21:50.059Z,22.57
2019-02-26T10:22:59.981Z,22.30
2019-02-26T10:24:05.078Z,20.83
2019-02-26T10:25:12.841Z,22.17
2019-02-26T10:26:19.525Z,22.10
2019-02-26T10:27:31.038Z,22.03
2019-02-26T10:28:37.293Z,21.80
2019-02-26T10:29:45.047Z,22.07
2019-02-26T10:30:54.419Z,22.47
2019-02-26T10:32:00.655Z,21.87
2019-02-26T10:33:09.807Z,22.17
2019-02-26T10:34:19.098Z,21.00
2019-02-26T10:35:33.227Z,18.90
2019-02-26T10:36:37.800Z,21.50
2019-02-26T10:37:51.825Z,20.90
2019-02-26T10:39:00.239Z,20.20
2019-02-26T10:40:09.516Z,20.77
2019-02-26T10:41:16.159Z,21.87
2019-02-26T10:42:22.844Z,21.77
2019-02-26T10:43:29.967Z,21.00
2019-02-26T10:44:37.582Z,21.20
2019-02-26T10:45:47.291Z,22.23
2019-02-26T10:46:53.062Z,23.80
2019-02-26T10:48:01.655Z,21.60
2019-02-26T10:49:08.138Z,21.50
2019-02-26T10:50:19.485Z,21.67
2019-02-26T10:51:27.050Z,22.60
2019-02-26T10:52:34.440Z,20.00
2019-02-26T10:53:41.214Z,20.40
2019-02-26T10:54:47.978Z,23.10
2019-02-26T10:55:54.657Z,22.77
2019-02-26T10:57:04.515Z,21.47
2019-02-26T10:58:12.913Z,21.77
2019-02-26T10:59:19.588Z,22.20
2019-02-26T11:00:31.203Z,20.53
2019-02-26T11:01:36.838Z,22.10
2019-02-26T11:02:46.000Z,22.03
2019-02-26T11:03:55.075Z,21.27
2019-02-26T11:05:01.214Z,20.50
2019-02-26T11:06:09.910Z,20.90
2019-02-26T11:07:16.363Z,22.43
2019-02-26T11:08:26.635Z,21.83
2019-02-26T11:09:32.040Z,20.83
2019-02-26T11:10:41.816Z,18.83
2019-02-26T11:11:47.255Z,17.90
2019-02-26T11:12:56.264Z,19.23
2019-02-26T11:14:05.133Z,19.30
2019-02-26T11:15:12.334Z,18.13
2019-02-26T11:16:25.224Z,17.00
2019-02-26T11:17:28.985Z,19.30
2019-02-26T11:18:37.384Z,21.67
2019-02-26T11:19:45.329Z,19.67
2019-02-26T11:20:55.406Z,18.57
2019-02-26T11:22:03.879Z,19.30
2019-02-26T11:23:11.976Z,17.70
2019-02-26T11:24:17.715Z,17.93
2019-02-26T11:25:27.186Z,17.97
2019-02-26T11:26:35.203Z,17.50
2019-02-26T11:27:43.477Z,19.33
2019-02-26T11:28:50.556Z,19.73
2019-02-26T11:29:59.605Z,18.03
2019-02-26T11:31:08.870Z,18.53
2019-02-26T11:32:15.767Z,19.17
2019-02-26T11:33:22.936Z,16.53
2019-02-26T11:34:32.771Z,18.17
2019-02-26T11:35:39.641Z,17.77
2019-02-26T11:36:46.970Z,18.47
2019-02-26T11:37:55.377Z,17.70
2019-02-26T11:39:04.272Z,16.90
2019-02-26T11:40:13.578Z,18.00
2019-02-26T11:41:20.460Z,17.17
2019-02-26T11:42:28.738Z,18.00
2019-02-26T11:43:36.302Z,17.60
2019-02-26T11:44:43.344Z,18.03
2019-02-26T11:45:50.308Z,19.50
2019-02-26T11:46:57.366Z,17.80
2019-02-26T11:48:06.115Z,19.17
2019-02-26T11:49:16.337Z,19.20
2019-02-26T11:50:26.980Z,18.73
2019-02-26T11:51:37.064Z,16.63
2019-02-26T11:52:40.158Z,17.60
2019-02-26T11:53:46.971Z,17.20
2019-02-26T11:54:55.853Z,19.60
2019-02-26T11:56:03.052Z,17.47
2019-02-26T11:57:11.021Z,18.67
2019-02-26T11:58:19.885Z,17.30
2019-02-26T11:59:26.663Z,18.00
2019-02-26T12:00:52.947Z,18.70
2019-02-26T12:02:01.347Z,19.80
2019-02-26T12:03:08.812Z,16.67
2019-02-26T12:04:17.020Z,18.83
2019-02-26T12:05:31.456Z,18.27
2019-02-26T12:06:33.335Z,19.00
2019-02-26T12:07:40.344Z,20.30
2019-02-26T12:08:47.932Z,20.40
2019-02-26T12:09:57.768Z,19.30
2019-02-26T12:11:06.590Z,20.77
2019-02-26T12:12:12.340Z,19.90
2019-02-26T12:13:22.222Z,19.83
2019-02-26T12:14:28.719Z,18.80
2019-02-26T12:15:36.287Z,19.57
2019-02-26T12:16:43.855Z,18.80
2019-02-26T12:17:51.761Z,19.10
2019-02-26T12:19:01.318Z,19.97
2019-02-26T12:20:12.129Z,19.80
2019-02-26T12:21:19.127Z,20.70
2019-02-26T12:22:27.886Z,19.43
2019-02-26T12:23:36.746Z,19.10
2019-02-26T12:24:47.818Z,20.57
2019-02-26T12:25:55.519Z,20.50
2019-02-26T12:27:02.886Z,19.07
2019-02-26T12:28:11.837Z,19.17
2019-02-26T12:29:20.491Z,19.90
2019-02-26T12:30:26.994Z,19.13
2019-02-26T12:31:36.373Z,20.40
2019-02-26T12:32:45.504Z,18.13
2019-02-26T12:33:51.703Z,19.20
2019-02-26T12:34:58.704Z,18.30
2019-02-26T12:36:07.405Z,20.60
2019-02-26T12:37:14.463Z,19.37
2019-02-26T12:38:21.533Z,19.37
2019-02-26T12:39:31.373Z,19.37
2019-02-26T12:40:37.866Z,18.60
2019-02-26T12:41:47.981Z,17.90
2019-02-26T12:42:54.207Z,17.00
2019-02-26T12:44:02.057Z,17.87
2019-02-26T12:45:13.591Z,16.97
2019-02-26T12:46:21.823Z,17.90
2019-02-26T12:47:28.440Z,18.37
2019-02-26T12:48:40.463Z,16.47
2019-02-26T12:49:46.086Z,16.17
2019-02-26T12:50:55.373Z,14.57
2019-02-26T12:52:03.266Z,15.80
2019-02-26T12:53:14.961Z,15.07
2019-02-26T12:54:20.196Z,14.83
2019-02-26T12:55:31.681Z,16.30
2019-02-26T12:56:37.356Z,16.47
2019-02-26T12:57:47.249Z,16.30
2019-02-26T12:58:54.596Z,16.50
2019-02-26T13:00:01.579Z,15.93
2019-02-26T13:01:08.620Z,16.17
2019-02-26T13:02:17.017Z,17.43
2019-02-26T13:03:24.062Z,16.33
2019-02-26T13:04:31.187Z,17.50
2019-02-26T13:05:39.280Z,17.50
2019-02-26T13:06:48.412Z,19.13
2019-02-26T13:07:55.022Z,16.13
2019-02-26T13:09:03.904Z,15.93
2019-02-26T13:10:15.066Z,17.10
2019-02-26T13:11:24.982Z,15.03
2019-02-26T13:12:32.387Z,15.40
2019-02-26T13:13:38.972Z,17.80
2019-02-26T13:14:47.510Z,19.57
2019-02-26T13:15:54.494Z,18.30
2019-02-26T13:17:01.840Z,17.37
2019-02-26T13:18:08.768Z,18.00
2019-02-26T13:19:21.391Z,17.63
2019-02-26T13:20:25.166Z,18.30
2019-02-26T13:21:32.404Z,17.43
2019-02-26T13:22:45.425Z,17.07
2019-02-26T13:23:47.760Z,16.20
2019-02-26T13:24:54.825Z,18.10
2019-02-26T13:26:03.731Z,17.37
2019-02-26T13:27:10.286Z,16.40
2019-02-26T13:28:17.433Z,16.57
2019-02-26T13:29:25.296Z,17.70
2019-02-26T13:30:32.514Z,15.80
2019-02-26T13:31:42.541Z,15.10
2019-02-26T13:32:56.273Z,15.17
2019-02-26T13:33:56.469Z,16.90
2019-02-26T13:35:07.436Z,15.83
2019-02-26T13:36:12.320Z,15.30
2019-02-26T13:37:19.042Z,16.17
2019-02-26T13:38:33.925Z,15.20
2019-02-26T13:39:38.387Z,15.40
2019-02-26T13:40:43.400Z,13.60
2019-02-26T13:41:54.403Z,13.50
2019-02-26T13:44:07.297Z,11.83
2019-02-26T13:45:17.711Z,12.47
2019-02-26T13:46:24.387Z,11.60
2019-02-26T13:47:31.120Z,12.43
2019-02-26T13:48:38.471Z,12.70
2019-02-26T13:49:45.586Z,13.07
2019-02-26T13:50:53.061Z,12.87
2019-02-26T13:52:00.534Z,13.47
2019-02-26T13:53:07.221Z,13.10
2019-02-26T13:54:13.915Z,11.70
2019-02-26T13:55:20.588Z,11.90
2019-02-26T13:56:27.699Z,11.60
2019-02-26T13:57:34.660Z,10.40
2019-02-26T13:58:41.398Z,11.17
2019-02-26T13:59:48.359Z,10.23
2019-02-26T14:00:55.103Z,10.33
2019-02-26T14:02:02.070Z,11.80
2019-02-26T14:03:08.796Z,11.17
2019-02-26T14:04:16.075Z,10.90
2019-02-26T14:05:23.059Z,12.03
2019-02-26T14:06:30.210Z,9.70
2019-02-26T14:07:36.904Z,10.07
2019-02-26T14:08:43.649Z,10.57
2019-02-26T14:09:50.308Z,10.80
2019-02-26T14:10:56.984Z,11.67
2019-02-26T14:12:04.063Z,12.47
2019-02-26T14:13:11.338Z,9.80
2019-02-26T14:14:18.166Z,9.77
2019-02-26T14:15:26.000Z,10.57
2019-02-26T14:16:32.870Z,8.13
2019-02-26T14:17:39.793Z,8.53
2019-02-26T14:18:48.211Z,8.10
2019-02-26T14:19:55.405Z,7.77
2019-02-26T14:21:02.605Z,9.10
2019-02-26T14:22:09.827Z,7.90
2019-02-26T14:23:17.065Z,8.50
2019-02-26T14:24:24.479Z,8.57
2019-02-26T14:25:31.535Z,9.20
2019-02-26T14:26:39.003Z,9.00
2019-02-26T14:27:46.164Z,9.60
2019-02-26T14:28:53.524Z,9.37
2019-02-26T14:30:00.899Z,8.83
2019-02-26T14:31:07.881Z,8.60
2019-02-26T14:32:15.198Z,8.63
2019-02-26T14:33:22.067Z,9.00
2019-02-26T14:34:29.405Z,8.33
2019-02-26T14:35:36.336Z,8.77
2019-02-26T14:36:43.552Z,10.03
2019-02-26T14:37:50.498Z,12.40
2019-02-26T14:38:57.971Z,12.50
2019-02-26T14:40:05.830Z,12.70
2019-02-26T14:41:12.593Z,13.20
2019-02-26T14:42:21.565Z,12.80
2019-02-26T14:43:27.997Z,14.73
2019-02-26T14:44:35.460Z,12.10
2019-02-26T14:45:43.175Z,12.13
2019-02-26T14:46:50.424Z,12.90
2019-02-26T14:47:58.018Z,12.10